sensor_id;sensor_type;location;lat;lon;timestamp;P1;durP1;ratioP1;P2;durP2;ratioP2
76813;SDS011;65767;49.360;8.266;2023-01-15T00:00:24;1.60;;;1.50;;
76813;SDS011;65767;49.360;8.266;2023-01-15T00:01:28;1.60;;;1.50;;
76813;SDS011;65767;49.360;8.266;2023-01-15T00:02:29;1.75;;;1.33;;
76813;SDS011;65767;49.360;8.266;2023-01-15T00:03:30;2.25;;;1.33;;
76813;SDS011;65767;49.360;8.266;2023-01-15T00:04:31;3.13;;;1.67;;
76813;SDS011;65767;49.360;8.266;2023-01-15T00:05:34;1.83;;;1.50;;
76813;SDS011;65767;49.360;8.266;2023-01-15T00:06:35;1.65;;;1.08;;
76813;SDS011;65767;49.360;8.266;2023-01-15T00:07:36;1.48;;;1.15;;
76813;SDS011;65767;49.360;8.266;2023-01-15T00:08:37;2.37;;;1.20;;
76813;SDS011;65767;49.360;8.266;2023-01-15T00:09:37;2.40;;;1.50;;
76813;SDS011;65767;49.360;8.266;2023-01-15T00:10:37;2.17;;;1.10;;
76813;SDS011;65767;49.360;8.266;2023-01-15T00:11:38;2.93;;;1.20;;
76813;SDS011;65767;49.360;8.266;2023-01-15T00:12:38;2.53;;;1.37;;
76813;SDS011;65767;49.360;8.266;2023-01-15T00:13:39;2.07;;;1.30;;
76813;SDS011;65767;49.360;8.266;2023-01-15T00:14:39;1.83;;;1.10;;
76813;SDS011;65767;49.360;8.266;2023-01-15T00:15:39;2.03;;;1.50;;
76813;SDS011;65767;49.360;8.266;2023-01-15T00:16:40;1.20;;;1.10;;
76813;SDS011;65767;49.360;8.266;2023-01-15T00:17:40;4.10;;;1.00;;
76813;SDS011;65767;49.360;8.266;2023-01-15T00:18:40;1.20;;;1.07;;
76813;SDS011;65767;49.360;8.266;2023-01-15T00:19:41;1.70;;;1.23;;
76813;SDS011;65767;49.360;8.266;2023-01-15T00:20:41;1.40;;;1.30;;
76813;SDS011;65767;49.360;8.266;2023-01-15T00:21:41;1.67;;;1.23;;
76813;SDS011;65767;49.360;8.266;2023-01-15T00:22:42;1.20;;;1.10;;
76813;SDS011;65767;49.360;8.266;2023-01-15T00:23:42;1.67;;;1.17;;
76813;SDS011;65767;49.360;8.266;2023-01-15T00:25:01;2.40;;;1.10;;
76813;SDS011;65767;49.360;8.266;2023-01-15T00:26:20;3.08;;;1.67;;
76813;SDS011;65767;49.360;8.266;2023-01-15T00:27:40;1.50;;;1.40;;
76813;SDS011;65767;49.360;8.266;2023-01-15T00:28:41;1.90;;;1.30;;
76813;SDS011;65767;49.360;8.266;2023-01-15T00:29:42;1.00;;;0.90;;
76813;SDS011;65767;49.360;8.266;2023-01-15T00:30:45;2.10;;;0.90;;
76813;SDS011;65767;49.360;8.266;2023-01-15T00:31:58;0.90;;;0.90;;
76813;SDS011;65767;49.360;8.266;2023-01-15T00:32:59;1.15;;;1.00;;
76813;SDS011;65767;49.360;8.266;2023-01-15T00:34:00;1.67;;;1.17;;
76813;SDS011;65767;49.360;8.266;2023-01-15T00:35:01;1.07;;;0.93;;
76813;SDS011;65767;49.360;8.266;2023-01-15T00:36:01;1.70;;;1.30;;
76813;SDS011;65767;49.360;8.266;2023-01-15T00:37:01;2.40;;;1.10;;
76813;SDS011;65767;49.360;8.266;2023-01-15T00:38:02;2.17;;;1.23;;
76813;SDS011;65767;49.360;8.266;2023-01-15T00:39:03;2.00;;;1.00;;
76813;SDS011;65767;49.360;8.266;2023-01-15T00:40:04;1.73;;;1.03;;
76813;SDS011;65767;49.360;8.266;2023-01-15T00:41:04;1.73;;;1.00;;
76813;SDS011;65767;49.360;8.266;2023-01-15T00:42:05;1.33;;;1.10;;
76813;SDS011;65767;49.360;8.266;2023-01-15T00:43:06;1.88;;;1.30;;
76813;SDS011;65767;49.360;8.266;2023-01-15T00:44:06;1.40;;;0.97;;
76813;SDS011;65767;49.360;8.266;2023-01-15T00:45:07;1.67;;;1.20;;
76813;SDS011;65767;49.360;8.266;2023-01-15T00:46:10;2.95;;;1.20;;
76813;SDS011;65767;49.360;8.266;2023-01-15T00:47:11;1.20;;;1.10;;
76813;SDS011;65767;49.360;8.266;2023-01-15T00:48:14;1.85;;;0.93;;
76813;SDS011;65767;49.360;8.266;2023-01-15T00:49:14;1.37;;;1.27;;
76813;SDS011;65767;49.360;8.266;2023-01-15T00:50:14;0.97;;;0.87;;
76813;SDS011;65767;49.360;8.266;2023-01-15T00:51:15;2.70;;;1.20;;
76813;SDS011;65767;49.360;8.266;2023-01-15T00:52:15;2.60;;;1.13;;
76813;SDS011;65767;49.360;8.266;2023-01-15T00:53:16;2.80;;;1.40;;
76813;SDS011;65767;49.360;8.266;2023-01-15T00:54:16;2.37;;;1.40;;
76813;SDS011;65767;49.360;8.266;2023-01-15T00:55:16;1.73;;;1.00;;
76813;SDS011;65767;49.360;8.266;2023-01-15T00:56:17;3.23;;;1.10;;
76813;SDS011;65767;49.360;8.266;2023-01-15T00:57:17;2.33;;;1.00;;
76813;SDS011;65767;49.360;8.266;2023-01-15T00:58:18;1.93;;;1.20;;
76813;SDS011;65767;49.360;8.266;2023-01-15T00:59:18;1.60;;;1.43;;
76813;SDS011;65767;49.360;8.266;2023-01-15T01:00:19;1.23;;;1.10;;
76813;SDS011;65767;49.360;8.266;2023-01-15T01:01:19;2.43;;;1.30;;
76813;SDS011;65767;49.360;8.266;2023-01-15T01:02:20;1.80;;;1.20;;
76813;SDS011;65767;49.360;8.266;2023-01-15T01:03:20;2.83;;;1.07;;
76813;SDS011;65767;49.360;8.266;2023-01-15T01:04:21;1.90;;;1.10;;
76813;SDS011;65767;49.360;8.266;2023-01-15T01:05:21;1.97;;;1.23;;
76813;SDS011;65767;49.360;8.266;2023-01-15T01:06:22;1.40;;;1.00;;
76813;SDS011;65767;49.360;8.266;2023-01-15T01:07:23;1.00;;;0.90;;
76813;SDS011;65767;49.360;8.266;2023-01-15T01:08:23;1.73;;;0.90;;
76813;SDS011;65767;49.360;8.266;2023-01-15T01:09:24;1.67;;;1.10;;
76813;SDS011;65767;49.360;8.266;2023-01-15T01:10:25;1.10;;;1.00;;
76813;SDS011;65767;49.360;8.266;2023-01-15T01:11:25;2.63;;;1.38;;
76813;SDS011;65767;49.360;8.266;2023-01-15T01:12:26;1.40;;;1.02;;
76813;SDS011;65767;49.360;8.266;2023-01-15T01:13:28;2.17;;;1.75;;
76813;SDS011;65767;49.360;8.266;2023-01-15T01:14:28;1.23;;;1.13;;
76813;SDS011;65767;49.360;8.266;2023-01-15T01:15:32;1.17;;;1.08;;
76813;SDS011;65767;49.360;8.266;2023-01-15T01:16:34;0.73;;;0.73;;
76813;SDS011;65767;49.360;8.266;2023-01-15T01:17:36;1.95;;;1.10;;
76813;SDS011;65767;49.360;8.266;2023-01-15T01:18:37;3.22;;;1.25;;
76813;SDS011;65767;49.360;8.266;2023-01-15T01:19:37;2.83;;;1.73;;
76813;SDS011;65767;49.360;8.266;2023-01-15T01:20:38;1.67;;;1.03;;
76813;SDS011;65767;49.360;8.266;2023-01-15T01:21:39;1.50;;;1.23;;
76813;SDS011;65767;49.360;8.266;2023-01-15T01:22:40;1.60;;;1.13;;
76813;SDS011;65767;49.360;8.266;2023-01-15T01:23:40;3.37;;;1.27;;
76813;SDS011;65767;49.360;8.266;2023-01-15T01:24:40;1.30;;;1.20;;
76813;SDS011;65767;49.360;8.266;2023-01-15T01:25:41;1.10;;;0.90;;
76813;SDS011;65767;49.360;8.266;2023-01-15T01:26:41;1.87;;;1.00;;
76813;SDS011;65767;49.360;8.266;2023-01-15T01:27:45;1.25;;;0.80;;
76813;SDS011;65767;49.360;8.266;2023-01-15T01:28:49;2.40;;;1.47;;
76813;SDS011;65767;49.360;8.266;2023-01-15T01:29:49;2.10;;;1.00;;
76813;SDS011;65767;49.360;8.266;2023-01-15T01:30:50;1.70;;;1.13;;
76813;SDS011;65767;49.360;8.266;2023-01-15T01:31:50;1.40;;;1.30;;
76813;SDS011;65767;49.360;8.266;2023-01-15T01:32:52;1.45;;;1.25;;
76813;SDS011;65767;49.360;8.266;2023-01-15T01:33:53;2.50;;;1.10;;
76813;SDS011;65767;49.360;8.266;2023-01-15T01:34:54;1.70;;;0.82;;
76813;SDS011;65767;49.360;8.266;2023-01-15T01:35:54;1.00;;;0.93;;
76813;SDS011;65767;49.360;8.266;2023-01-15T01:36:55;1.33;;;0.90;;
76813;SDS011;65767;49.360;8.266;2023-01-15T01:37:55;0.97;;;0.87;;
76813;SDS011;65767;49.360;8.266;2023-01-15T01:38:56;0.90;;;0.87;;
76813;SDS011;65767;49.360;8.266;2023-01-15T01:39:56;1.33;;;1.00;;
76813;SDS011;65767;49.360;8.266;2023-01-15T01:40:57;0.87;;;0.70;;
76813;SDS011;65767;49.360;8.266;2023-01-15T01:41:57;1.00;;;0.83;;
76813;SDS011;65767;49.360;8.266;2023-01-15T01:42:58;0.80;;;0.80;;
76813;SDS011;65767;49.360;8.266;2023-01-15T01:44:02;0.67;;;0.67;;
76813;SDS011;65767;49.360;8.266;2023-01-15T01:45:05;2.63;;;0.90;;
76813;SDS011;65767;49.360;8.266;2023-01-15T01:46:06;1.35;;;0.60;;
76813;SDS011;65767;49.360;8.266;2023-01-15T01:47:07;1.60;;;0.60;;
76813;SDS011;65767;49.360;8.266;2023-01-15T01:48:08;1.42;;;0.60;;
76813;SDS011;65767;49.360;8.266;2023-01-15T01:49:10;0.83;;;0.73;;
76813;SDS011;65767;49.360;8.266;2023-01-15T01:50:11;1.13;;;1.02;;
76813;SDS011;65767;49.360;8.266;2023-01-15T01:51:12;2.70;;;0.50;;
76813;SDS011;65767;49.360;8.266;2023-01-15T01:52:56;2.30;;;0.80;;
76813;SDS011;65767;49.360;8.266;2023-01-15T01:53:36;0.90;;;0.68;;
76813;SDS011;65767;49.360;8.266;2023-01-15T01:54:37;1.17;;;0.70;;
76813;SDS011;65767;49.360;8.266;2023-01-15T01:55:38;0.77;;;0.77;;
76813;SDS011;65767;49.360;8.266;2023-01-15T01:56:38;0.70;;;0.50;;
76813;SDS011;65767;49.360;8.266;2023-01-15T01:57:38;1.97;;;1.17;;
76813;SDS011;65767;49.360;8.266;2023-01-15T01:58:39;1.15;;;0.90;;
76813;SDS011;65767;49.360;8.266;2023-01-15T01:59:40;2.00;;;0.77;;
76813;SDS011;65767;49.360;8.266;2023-01-15T02:00:41;0.53;;;0.50;;
76813;SDS011;65767;49.360;8.266;2023-01-15T02:01:43;0.63;;;0.40;;
76813;SDS011;65767;49.360;8.266;2023-01-15T02:02:44;1.10;;;1.00;;
76813;SDS011;65767;49.360;8.266;2023-01-15T02:03:45;0.45;;;0.45;;
76813;SDS011;65767;49.360;8.266;2023-01-15T02:04:46;1.13;;;0.83;;
76813;SDS011;65767;49.360;8.266;2023-01-15T02:05:49;0.50;;;0.50;;
76813;SDS011;65767;49.360;8.266;2023-01-15T02:06:51;0.40;;;0.38;;
76813;SDS011;65767;49.360;8.266;2023-01-15T02:07:52;0.63;;;0.60;;
76813;SDS011;65767;49.360;8.266;2023-01-15T02:08:53;1.47;;;0.87;;
76813;SDS011;65767;49.360;8.266;2023-01-15T02:09:53;0.73;;;0.60;;
76813;SDS011;65767;49.360;8.266;2023-01-15T02:10:54;0.73;;;0.70;;
76813;SDS011;65767;49.360;8.266;2023-01-15T02:12:09;0.60;;;0.60;;
76813;SDS011;65767;49.360;8.266;2023-01-15T02:15:15;0.50;;;0.30;;
76813;SDS011;65767;49.360;8.266;2023-01-15T02:17:19;0.77;;;0.67;;
76813;SDS011;65767;49.360;8.266;2023-01-15T02:18:23;1.48;;;0.85;;
76813;SDS011;65767;49.360;8.266;2023-01-15T02:20:47;1.13;;;0.90;;
76813;SDS011;65767;49.360;8.266;2023-01-15T02:25:11;1.00;;;0.63;;
76813;SDS011;65767;49.360;8.266;2023-01-15T02:26:35;1.08;;;0.98;;
76813;SDS011;65767;49.360;8.266;2023-01-15T02:27:36;1.52;;;1.17;;
76813;SDS011;65767;49.360;8.266;2023-01-15T02:28:39;0.60;;;0.60;;
76813;SDS011;65767;49.360;8.266;2023-01-15T02:31:11;1.50;;;0.60;;
76813;SDS011;65767;49.360;8.266;2023-01-15T02:32:18;0.77;;;0.47;;
76813;SDS011;65767;49.360;8.266;2023-01-15T02:33:23;1.17;;;0.80;;
76813;SDS011;65767;49.360;8.266;2023-01-15T02:34:26;1.05;;;0.70;;
76813;SDS011;65767;49.360;8.266;2023-01-15T02:35:37;1.58;;;0.63;;
76813;SDS011;65767;49.360;8.266;2023-01-15T02:36:43;1.77;;;0.60;;
76813;SDS011;65767;49.360;8.266;2023-01-15T02:37:56;1.25;;;0.68;;
76813;SDS011;65767;49.360;8.266;2023-01-15T02:39:00;0.98;;;0.73;;
76813;SDS011;65767;49.360;8.266;2023-01-15T02:40:02;1.63;;;0.50;;
76813;SDS011;65767;49.360;8.266;2023-01-15T02:41:04;0.40;;;0.40;;
76813;SDS011;65767;49.360;8.266;2023-01-15T02:42:10;0.88;;;0.60;;
76813;SDS011;65767;49.360;8.266;2023-01-15T02:43:17;0.98;;;0.80;;
76813;SDS011;65767;49.360;8.266;2023-01-15T02:44:20;0.82;;;0.70;;
76813;SDS011;65767;49.360;8.266;2023-01-15T02:45:29;1.63;;;0.90;;
76813;SDS011;65767;49.360;8.266;2023-01-15T02:46:35;0.70;;;0.70;;
76813;SDS011;65767;49.360;8.266;2023-01-15T02:47:40;0.80;;;0.80;;
76813;SDS011;65767;49.360;8.266;2023-01-15T02:48:43;1.95;;;0.70;;
76813;SDS011;65767;49.360;8.266;2023-01-15T02:49:45;2.15;;;0.90;;
76813;SDS011;65767;49.360;8.266;2023-01-15T02:50:51;1.25;;;0.63;;
76813;SDS011;65767;49.360;8.266;2023-01-15T02:52:57;0.60;;;0.60;;
76813;SDS011;65767;49.360;8.266;2023-01-15T02:54:03;1.05;;;0.90;;
76813;SDS011;65767;49.360;8.266;2023-01-15T02:55:10;1.63;;;0.88;;
76813;SDS011;65767;49.360;8.266;2023-01-15T02:56:22;0.77;;;0.70;;
76813;SDS011;65767;49.360;8.266;2023-01-15T02:57:25;2.60;;;1.75;;
76813;SDS011;65767;49.360;8.266;2023-01-15T02:58:30;2.22;;;1.63;;
76813;SDS011;65767;49.360;8.266;2023-01-15T02:59:35;4.45;;;3.45;;
76813;SDS011;65767;49.360;8.266;2023-01-15T03:00:39;5.18;;;3.85;;
76813;SDS011;65767;49.360;8.266;2023-01-15T03:01:43;3.10;;;2.80;;
76813;SDS011;65767;49.360;8.266;2023-01-15T03:02:52;5.15;;;3.15;;
76813;SDS011;65767;49.360;8.266;2023-01-15T03:05:58;1.60;;;0.47;;
76813;SDS011;65767;49.360;8.266;2023-01-15T03:07:02;0.50;;;0.50;;
76813;SDS011;65767;49.360;8.266;2023-01-15T03:08:06;3.25;;;0.50;;
76813;SDS011;65767;49.360;8.266;2023-01-15T03:09:09;1.02;;;0.40;;
76813;SDS011;65767;49.360;8.266;2023-01-15T03:10:09;0.13;;;0.13;;
76813;SDS011;65767;49.360;8.266;2023-01-15T03:11:10;0.20;;;0.10;;
76813;SDS011;65767;49.360;8.266;2023-01-15T03:12:22;1.05;;;0.20;;
76813;SDS011;65767;49.360;8.266;2023-01-15T03:17:14;0.40;;;0.20;;
76813;SDS011;65767;49.360;8.266;2023-01-15T03:18:16;2.35;;;0.40;;
76813;SDS011;65767;49.360;8.266;2023-01-15T03:20:26;0.40;;;0.38;;
76813;SDS011;65767;49.360;8.266;2023-01-15T03:21:30;1.45;;;0.20;;
76813;SDS011;65767;49.360;8.266;2023-01-15T03:22:32;0.10;;;0.10;;
76813;SDS011;65767;49.360;8.266;2023-01-15T03:23:34;0.30;;;0.30;;
76813;SDS011;65767;49.360;8.266;2023-01-15T03:24:45;0.70;;;0.30;;
76813;SDS011;65767;49.360;8.266;2023-01-15T03:25:47;0.88;;;0.30;;
76813;SDS011;65767;49.360;8.266;2023-01-15T03:26:48;0.30;;;0.28;;
76813;SDS011;65767;49.360;8.266;2023-01-15T03:27:48;1.40;;;0.50;;
76813;SDS011;65767;49.360;8.266;2023-01-15T03:28:50;3.00;;;0.80;;
76813;SDS011;65767;49.360;8.266;2023-01-15T03:29:53;1.37;;;0.70;;
76813;SDS011;65767;49.360;8.266;2023-01-15T03:30:53;1.33;;;0.60;;
76813;SDS011;65767;49.360;8.266;2023-01-15T03:31:54;0.43;;;0.27;;
76813;SDS011;65767;49.360;8.266;2023-01-15T03:32:54;0.57;;;0.30;;
76813;SDS011;65767;49.360;8.266;2023-01-15T03:33:55;0.70;;;0.40;;
76813;SDS011;65767;49.360;8.266;2023-01-15T03:34:57;0.88;;;0.20;;
76813;SDS011;65767;49.360;8.266;2023-01-15T03:36:01;0.47;;;0.30;;
76813;SDS011;65767;49.360;8.266;2023-01-15T03:37:11;0.38;;;0.20;;
76813;SDS011;65767;49.360;8.266;2023-01-15T03:38:12;0.13;;;0.10;;
76813;SDS011;65767;49.360;8.266;2023-01-15T03:39:13;0.13;;;0.10;;
76813;SDS011;65767;49.360;8.266;2023-01-15T03:40:24;0.20;;;0.20;;
76813;SDS011;65767;49.360;8.266;2023-01-15T03:42:34;0.20;;;0.20;;
76813;SDS011;65767;49.360;8.266;2023-01-15T03:44:45;0.10;;;0.10;;
76813;SDS011;65767;49.360;8.266;2023-01-15T03:45:46;0.15;;;0.10;;
76813;SDS011;65767;49.360;8.266;2023-01-15T03:48:19;0.10;;;0.10;;
76813;SDS011;65767;49.360;8.266;2023-01-15T03:50:31;0.28;;;0.00;;
76813;SDS011;65767;49.360;8.266;2023-01-15T03:51:56;1.05;;;0.10;;
76813;SDS011;65767;49.360;8.266;2023-01-15T03:53:03;0.15;;;0.10;;
76813;SDS011;65767;49.360;8.266;2023-01-15T03:54:08;0.82;;;0.20;;
76813;SDS011;65767;49.360;8.266;2023-01-15T03:55:21;0.68;;;0.10;;
76813;SDS011;65767;49.360;8.266;2023-01-15T03:56:57;1.52;;;0.40;;
76813;SDS011;65767;49.360;8.266;2023-01-15T03:57:57;0.30;;;0.10;;
76813;SDS011;65767;49.360;8.266;2023-01-15T03:59:01;0.10;;;0.10;;
76813;SDS011;65767;49.360;8.266;2023-01-15T04:00:21;0.40;;;0.20;;
76813;SDS011;65767;49.360;8.266;2023-01-15T04:01:32;0.38;;;0.10;;
76813;SDS011;65767;49.360;8.266;2023-01-15T04:02:34;0.75;;;0.10;;
76813;SDS011;65767;49.360;8.266;2023-01-15T04:03:35;0.43;;;0.10;;
76813;SDS011;65767;49.360;8.266;2023-01-15T04:04:38;0.10;;;0.10;;
76813;SDS011;65767;49.360;8.266;2023-01-15T04:05:40;0.40;;;0.20;;
76813;SDS011;65767;49.360;8.266;2023-01-15T04:06:41;1.35;;;0.20;;
76813;SDS011;65767;49.360;8.266;2023-01-15T04:07:42;0.50;;;0.20;;
76813;SDS011;65767;49.360;8.266;2023-01-15T04:08:44;0.10;;;0.10;;
76813;SDS011;65767;49.360;8.266;2023-01-15T04:09:45;0.57;;;0.28;;
76813;SDS011;65767;49.360;8.266;2023-01-15T04:10:55;0.30;;;0.20;;
76813;SDS011;65767;49.360;8.266;2023-01-15T04:11:59;0.20;;;0.20;;
76813;SDS011;65767;49.360;8.266;2023-01-15T04:13:00;1.20;;;0.85;;
76813;SDS011;65767;49.360;8.266;2023-01-15T04:14:01;0.50;;;0.50;;
76813;SDS011;65767;49.360;8.266;2023-01-15T04:15:09;1.60;;;1.10;;
76813;SDS011;65767;49.360;8.266;2023-01-15T04:16:10;0.70;;;0.70;;
76813;SDS011;65767;49.360;8.266;2023-01-15T04:17:10;0.80;;;0.80;;
76813;SDS011;65767;49.360;8.266;2023-01-15T04:18:10;0.60;;;0.60;;
76813;SDS011;65767;49.360;8.266;2023-01-15T04:19:11;1.37;;;0.70;;
76813;SDS011;65767;49.360;8.266;2023-01-15T04:20:18;1.65;;;0.60;;
76813;SDS011;65767;49.360;8.266;2023-01-15T04:21:19;0.85;;;0.50;;
76813;SDS011;65767;49.360;8.266;2023-01-15T04:22:20;1.17;;;0.60;;
76813;SDS011;65767;49.360;8.266;2023-01-15T04:23:20;0.40;;;0.40;;
76813;SDS011;65767;49.360;8.266;2023-01-15T04:24:21;1.10;;;0.40;;
76813;SDS011;65767;49.360;8.266;2023-01-15T04:25:22;0.53;;;0.30;;
76813;SDS011;65767;49.360;8.266;2023-01-15T04:26:22;1.57;;;0.40;;
76813;SDS011;65767;49.360;8.266;2023-01-15T04:27:23;0.50;;;0.50;;
76813;SDS011;65767;49.360;8.266;2023-01-15T04:28:24;1.33;;;0.33;;
76813;SDS011;65767;49.360;8.266;2023-01-15T04:29:24;0.30;;;0.30;;
76813;SDS011;65767;49.360;8.266;2023-01-15T04:30:25;0.20;;;0.20;;
76813;SDS011;65767;49.360;8.266;2023-01-15T04:31:25;0.60;;;0.20;;
76813;SDS011;65767;49.360;8.266;2023-01-15T04:32:26;1.55;;;0.30;;
76813;SDS011;65767;49.360;8.266;2023-01-15T04:33:27;0.47;;;0.30;;
76813;SDS011;65767;49.360;8.266;2023-01-15T04:34:27;0.27;;;0.27;;
76813;SDS011;65767;49.360;8.266;2023-01-15T04:35:28;0.10;;;0.10;;
76813;SDS011;65767;49.360;8.266;2023-01-15T04:36:28;1.30;;;0.20;;
76813;SDS011;65767;49.360;8.266;2023-01-15T04:37:29;0.37;;;0.20;;
76813;SDS011;65767;49.360;8.266;2023-01-15T04:38:29;1.70;;;0.30;;
76813;SDS011;65767;49.360;8.266;2023-01-15T04:39:29;0.10;;;0.10;;
76813;SDS011;65767;49.360;8.266;2023-01-15T04:40:30;0.70;;;0.40;;
76813;SDS011;65767;49.360;8.266;2023-01-15T04:41:49;0.30;;;0.20;;
76813;SDS011;65767;49.360;8.266;2023-01-15T04:43:11;0.25;;;0.20;;
76813;SDS011;65767;49.360;8.266;2023-01-15T04:44:31;0.40;;;0.40;;
76813;SDS011;65767;49.360;8.266;2023-01-15T04:45:31;0.20;;;0.20;;
76813;SDS011;65767;49.360;8.266;2023-01-15T04:46:36;0.20;;;0.20;;
76813;SDS011;65767;49.360;8.266;2023-01-15T04:47:37;0.55;;;0.30;;
76813;SDS011;65767;49.360;8.266;2023-01-15T04:48:37;0.30;;;0.20;;
76813;SDS011;65767;49.360;8.266;2023-01-15T04:49:38;0.13;;;0.13;;
76813;SDS011;65767;49.360;8.266;2023-01-15T04:50:38;0.00;;;0.00;;
76813;SDS011;65767;49.360;8.266;2023-01-15T04:51:39;0.93;;;0.10;;
76813;SDS011;65767;49.360;8.266;2023-01-15T04:52:39;0.10;;;0.10;;
76813;SDS011;65767;49.360;8.266;2023-01-15T04:53:39;0.10;;;0.10;;
76813;SDS011;65767;49.360;8.266;2023-01-15T04:54:40;0.10;;;0.10;;
76813;SDS011;65767;49.360;8.266;2023-01-15T04:55:40;0.67;;;0.17;;
76813;SDS011;65767;49.360;8.266;2023-01-15T04:56:42;0.30;;;0.20;;
76813;SDS011;65767;49.360;8.266;2023-01-15T04:57:42;0.13;;;0.10;;
76813;SDS011;65767;49.360;8.266;2023-01-15T04:58:43;0.20;;;0.20;;
76813;SDS011;65767;49.360;8.266;2023-01-15T04:59:43;0.03;;;0.03;;
76813;SDS011;65767;49.360;8.266;2023-01-15T05:00:43;0.23;;;0.20;;
76813;SDS011;65767;49.360;8.266;2023-01-15T05:01:44;0.10;;;0.10;;
76813;SDS011;65767;49.360;8.266;2023-01-15T05:02:44;0.10;;;0.10;;
76813;SDS011;65767;49.360;8.266;2023-01-15T05:03:44;0.10;;;0.10;;
76813;SDS011;65767;49.360;8.266;2023-01-15T05:04:45;0.20;;;0.20;;
76813;SDS011;65767;49.360;8.266;2023-01-15T05:05:45;0.10;;;0.10;;
76813;SDS011;65767;49.360;8.266;2023-01-15T05:06:46;0.00;;;0.00;;
76813;SDS011;65767;49.360;8.266;2023-01-15T05:07:46;0.10;;;0.10;;
76813;SDS011;65767;49.360;8.266;2023-01-15T05:08:47;0.00;;;0.00;;
76813;SDS011;65767;49.360;8.266;2023-01-15T05:09:47;0.53;;;0.20;;
76813;SDS011;65767;49.360;8.266;2023-01-15T05:10:50;0.10;;;0.10;;
76813;SDS011;65767;49.360;8.266;2023-01-15T05:11:51;0.20;;;0.10;;
76813;SDS011;65767;49.360;8.266;2023-01-15T05:12:51;0.10;;;0.10;;
76813;SDS011;65767;49.360;8.266;2023-01-15T05:13:52;0.20;;;0.20;;
76813;SDS011;65767;49.360;8.266;2023-01-15T05:14:52;0.20;;;0.20;;
76813;SDS011;65767;49.360;8.266;2023-01-15T05:15:52;0.10;;;0.10;;
76813;SDS011;65767;49.360;8.266;2023-01-15T05:16:53;0.20;;;0.20;;
76813;SDS011;65767;49.360;8.266;2023-01-15T05:17:53;0.37;;;0.10;;
76813;SDS011;65767;49.360;8.266;2023-01-15T05:18:55;0.47;;;0.20;;
76813;SDS011;65767;49.360;8.266;2023-01-15T05:19:56;0.17;;;0.08;;
76813;SDS011;65767;49.360;8.266;2023-01-15T05:20:56;0.20;;;0.10;;
76813;SDS011;65767;49.360;8.266;2023-01-15T05:21:56;0.13;;;0.10;;
76813;SDS011;65767;49.360;8.266;2023-01-15T05:22:57;0.20;;;0.20;;
76813;SDS011;65767;49.360;8.266;2023-01-15T05:23:58;1.80;;;0.20;;
76813;SDS011;65767;49.360;8.266;2023-01-15T05:24:59;1.30;;;0.17;;
76813;SDS011;65767;49.360;8.266;2023-01-15T05:26:01;0.10;;;0.10;;
76813;SDS011;65767;49.360;8.266;2023-01-15T05:27:02;0.25;;;0.20;;
76813;SDS011;65767;49.360;8.266;2023-01-15T05:28:04;0.10;;;0.10;;
76813;SDS011;65767;49.360;8.266;2023-01-15T05:29:04;0.53;;;0.37;;
76813;SDS011;65767;49.360;8.266;2023-01-15T05:30:05;0.10;;;0.00;;
76813;SDS011;65767;49.360;8.266;2023-01-15T05:31:06;0.17;;;0.10;;
76813;SDS011;65767;49.360;8.266;2023-01-15T05:32:07;0.40;;;0.20;;
76813;SDS011;65767;49.360;8.266;2023-01-15T05:33:07;0.10;;;0.10;;
76813;SDS011;65767;49.360;8.266;2023-01-15T05:34:08;1.10;;;0.10;;
76813;SDS011;65767;49.360;8.266;2023-01-15T05:35:08;0.40;;;0.20;;
76813;SDS011;65767;49.360;8.266;2023-01-15T05:36:10;0.23;;;0.20;;
76813;SDS011;65767;49.360;8.266;2023-01-15T05:37:11;0.10;;;0.10;;
76813;SDS011;65767;49.360;8.266;2023-01-15T05:38:11;0.77;;;0.27;;
76813;SDS011;65767;49.360;8.266;2023-01-15T05:39:11;0.97;;;0.30;;
76813;SDS011;65767;49.360;8.266;2023-01-15T05:40:12;0.53;;;0.23;;
76813;SDS011;65767;49.360;8.266;2023-01-15T05:41:13;0.27;;;0.20;;
76813;SDS011;65767;49.360;8.266;2023-01-15T05:42:32;0.10;;;0.10;;
76813;SDS011;65767;49.360;8.266;2023-01-15T05:43:32;0.03;;;0.03;;
76813;SDS011;65767;49.360;8.266;2023-01-15T05:44:33;0.10;;;0.10;;
76813;SDS011;65767;49.360;8.266;2023-01-15T05:45:33;0.40;;;0.20;;
76813;SDS011;65767;49.360;8.266;2023-01-15T05:46:35;2.15;;;0.50;;
76813;SDS011;65767;49.360;8.266;2023-01-15T05:47:36;0.20;;;0.20;;
76813;SDS011;65767;49.360;8.266;2023-01-15T05:48:36;1.53;;;0.40;;
76813;SDS011;65767;49.360;8.266;2023-01-15T05:49:36;0.10;;;0.10;;
76813;SDS011;65767;49.360;8.266;2023-01-15T05:50:37;0.30;;;0.10;;
76813;SDS011;65767;49.360;8.266;2023-01-15T05:51:38;0.13;;;0.13;;
76813;SDS011;65767;49.360;8.266;2023-01-15T05:52:38;0.10;;;0.10;;
76813;SDS011;65767;49.360;8.266;2023-01-15T05:53:39;0.23;;;0.20;;
76813;SDS011;65767;49.360;8.266;2023-01-15T05:54:39;0.53;;;0.23;;
76813;SDS011;65767;49.360;8.266;2023-01-15T05:55:39;0.33;;;0.30;;
76813;SDS011;65767;49.360;8.266;2023-01-15T05:56:40;0.77;;;0.30;;
76813;SDS011;65767;49.360;8.266;2023-01-15T05:57:40;0.20;;;0.20;;
76813;SDS011;65767;49.360;8.266;2023-01-15T05:58:41;0.20;;;0.13;;
76813;SDS011;65767;49.360;8.266;2023-01-15T05:59:41;0.70;;;0.20;;
76813;SDS011;65767;49.360;8.266;2023-01-15T06:00:41;0.27;;;0.27;;
76813;SDS011;65767;49.360;8.266;2023-01-15T06:01:42;0.43;;;0.40;;
76813;SDS011;65767;49.360;8.266;2023-01-15T06:02:43;0.20;;;0.20;;
76813;SDS011;65767;49.360;8.266;2023-01-15T06:03:43;0.30;;;0.30;;
76813;SDS011;65767;49.360;8.266;2023-01-15T06:04:43;0.30;;;0.30;;
76813;SDS011;65767;49.360;8.266;2023-01-15T06:05:48;1.10;;;0.20;;
76813;SDS011;65767;49.360;8.266;2023-01-15T06:06:49;0.20;;;0.20;;
76813;SDS011;65767;49.360;8.266;2023-01-15T06:07:50;0.45;;;0.30;;
76813;SDS011;65767;49.360;8.266;2023-01-15T06:08:52;0.65;;;0.22;;
76813;SDS011;65767;49.360;8.266;2023-01-15T06:09:52;1.73;;;0.30;;
76813;SDS011;65767;49.360;8.266;2023-01-15T06:10:52;0.13;;;0.13;;
76813;SDS011;65767;49.360;8.266;2023-01-15T06:11:53;0.20;;;0.20;;
76813;SDS011;65767;49.360;8.266;2023-01-15T06:12:54;0.20;;;0.20;;
76813;SDS011;65767;49.360;8.266;2023-01-15T06:13:54;0.20;;;0.13;;
76813;SDS011;65767;49.360;8.266;2023-01-15T06:14:55;0.30;;;0.30;;
76813;SDS011;65767;49.360;8.266;2023-01-15T06:15:55;0.40;;;0.27;;
76813;SDS011;65767;49.360;8.266;2023-01-15T06:16:55;0.20;;;0.20;;
76813;SDS011;65767;49.360;8.266;2023-01-15T06:17:56;0.10;;;0.10;;
76813;SDS011;65767;49.360;8.266;2023-01-15T06:19:03;1.60;;;0.30;;
76813;SDS011;65767;49.360;8.266;2023-01-15T06:20:04;0.20;;;0.20;;
76813;SDS011;65767;49.360;8.266;2023-01-15T06:21:05;0.20;;;0.20;;
76813;SDS011;65767;49.360;8.266;2023-01-15T06:22:05;0.57;;;0.20;;
76813;SDS011;65767;49.360;8.266;2023-01-15T06:23:06;0.70;;;0.20;;
76813;SDS011;65767;49.360;8.266;2023-01-15T06:24:06;0.30;;;0.30;;
76813;SDS011;65767;49.360;8.266;2023-01-15T06:25:07;0.20;;;0.20;;
76813;SDS011;65767;49.360;8.266;2023-01-15T06:26:12;0.15;;;0.15;;
76813;SDS011;65767;49.360;8.266;2023-01-15T06:27:13;0.30;;;0.30;;
76813;SDS011;65767;49.360;8.266;2023-01-15T06:28:13;0.40;;;0.40;;
76813;SDS011;65767;49.360;8.266;2023-01-15T06:29:13;1.10;;;0.30;;
76813;SDS011;65767;49.360;8.266;2023-01-15T06:30:17;0.20;;;0.20;;
76813;SDS011;65767;49.360;8.266;2023-01-15T06:31:19;0.30;;;0.30;;
76813;SDS011;65767;49.360;8.266;2023-01-15T06:32:19;0.35;;;0.30;;
76813;SDS011;65767;49.360;8.266;2023-01-15T06:33:20;3.03;;;0.80;;
76813;SDS011;65767;49.360;8.266;2023-01-15T06:34:20;1.37;;;0.30;;
76813;SDS011;65767;49.360;8.266;2023-01-15T06:35:20;0.50;;;0.50;;
76813;SDS011;65767;49.360;8.266;2023-01-15T06:36:21;1.10;;;0.57;;
76813;SDS011;65767;49.360;8.266;2023-01-15T06:37:22;0.45;;;0.20;;
76813;SDS011;65767;49.360;8.266;2023-01-15T06:38:22;0.73;;;0.40;;